MSR60 HECA-HELX
Flight info
| Callsign | MSR60 |
|---|---|
| Flight time | 0h 53m |
| Altitude | 35000 |
| Route | CVO A727 LXR |
| Aircraft | B738/M-SDE2E3FGHIRWXY/LB1 |
Departure
| Time | 2026-05-04 08:14 |
|---|---|
| Airport | Cairo International Airport (HECA) |
Arrival
| Time | 2026-05-04 09:07 |
|---|---|
| Airport | Luxor International Airport (HELX) |
| Time | Latitude | Longitude | Altitude | Speed | Heading |
|---|---|---|---|---|---|
| 2026-05-04 07:39 | 30.10871 | 31.39659 | 373 ft | 0 kts | 256° |
| 2026-05-04 07:54 | 30.10873 | 31.39670 | 374 ft | 4 kts | 256° |
| 2026-05-04 07:55 | 30.10880 | 31.39700 | 374 ft | 4 kts | 254° |
| 2026-05-04 07:55 | 30.10887 | 31.39726 | 374 ft | 3 kts | 244° |
| 2026-05-04 07:55 | 30.10897 | 31.39741 | 374 ft | 2 kts | 201° |
| 2026-05-04 07:55 | 30.10908 | 31.39744 | 374 ft | 2 kts | 175° |
| 2026-05-04 07:56 | 30.10919 | 31.39742 | 374 ft | 2 kts | 170° |
| 2026-05-04 07:56 | 30.10922 | 31.39742 | 374 ft | 0 kts | 170° |
| 2026-05-04 08:02 | 30.10797 | 31.39778 | 373 ft | 14 kts | 165° |
| 2026-05-04 08:02 | 30.10742 | 31.39795 | 373 ft | 8 kts | 165° |
| 2026-05-04 08:02 | 30.10689 | 31.39812 | 373 ft | 8 kts | 165° |
| 2026-05-04 08:03 | 30.10638 | 31.39827 | 373 ft | 7 kts | 166° |
| 2026-05-04 08:03 | 30.10589 | 31.39841 | 373 ft | 7 kts | 166° |
| 2026-05-04 08:03 | 30.10550 | 31.39852 | 373 ft | 0 kts | 166° |
| 2026-05-04 08:04 | 30.10549 | 31.39852 | 373 ft | 1 kts | 166° |
| 2026-05-04 08:04 | 30.10511 | 31.39871 | 373 ft | 7 kts | 139° |
| 2026-05-04 08:04 | 30.10490 | 31.39922 | 373 ft | 7 kts | 101° |
| 2026-05-04 08:04 | 30.10501 | 31.39975 | 373 ft | 7 kts | 58° |
| 2026-05-04 08:05 | 30.10531 | 31.40017 | 373 ft | 7 kts | 49° |
| 2026-05-04 08:05 | 30.10564 | 31.40060 | 373 ft | 8 kts | 49° |
| 2026-05-04 08:05 | 30.10603 | 31.40113 | 373 ft | 10 kts | 49° |
| 2026-05-04 08:05 | 30.10653 | 31.40181 | 373 ft | 13 kts | 49° |
| 2026-05-04 08:06 | 30.10703 | 31.40270 | 373 ft | 14 kts | 84° |
| 2026-05-04 08:06 | 30.10689 | 31.40376 | 373 ft | 14 kts | 70° |
| 2026-05-04 08:06 | 30.10747 | 31.40463 | 373 ft | 14 kts | 49° |
| 2026-05-04 08:06 | 30.10814 | 31.40553 | 373 ft | 15 kts | 49° |
| 2026-05-04 08:08 | 30.11349 | 31.41264 | 374 ft | 19 kts | 49° |
| 2026-05-04 08:08 | 30.11437 | 31.41381 | 374 ft | 19 kts | 49° |
| 2026-05-04 08:10 | 30.12130 | 31.42308 | 374 ft | 18 kts | 50° |
| 2026-05-04 08:11 | 30.12212 | 31.42420 | 374 ft | 19 kts | 49° |
| 2026-05-04 08:11 | 30.12384 | 31.42643 | 374 ft | 18 kts | 49° |
| 2026-05-04 08:11 | 30.12460 | 31.42755 | 374 ft | 17 kts | 61° |
| 2026-05-04 08:12 | 30.12468 | 31.42854 | 374 ft | 8 kts | 107° |
| 2026-05-04 08:12 | 30.12439 | 31.42908 | 374 ft | 8 kts | 133° |
| 2026-05-04 08:12 | 30.12384 | 31.42933 | 374 ft | 9 kts | 178° |
| 2026-05-04 08:12 | 30.12321 | 31.42918 | 374 ft | 10 kts | 197° |
| 2026-05-04 08:13 | 30.12275 | 31.42888 | 374 ft | 0 kts | 225° |
| 2026-05-04 08:13 | 30.12217 | 31.42812 | 374 ft | 49 kts | 229° |
| 2026-05-04 08:13 | 30.11782 | 31.42232 | 374 ft | 139 kts | 229° |
| 2026-05-04 08:13 | 30.11000 | 31.41201 | 684 ft | 189 kts | 232° |
| 2026-05-04 08:14 | 30.10124 | 31.40009 | 1583 ft | 194 kts | 225° |
| 2026-05-04 08:14 | 30.08913 | 31.39240 | 2647 ft | 201 kts | 211° |
| 2026-05-04 08:14 | 30.07644 | 31.38556 | 3511 ft | 203 kts | 202° |
| 2026-05-04 08:16 | 29.97613 | 31.42430 | 5894 ft | 262 kts | 165° |
| 2026-05-04 08:16 | 29.95801 | 31.43105 | 6315 ft | 281 kts | 166° |
| 2026-05-04 08:16 | 29.93907 | 31.43788 | 6986 ft | 289 kts | 166° |
| 2026-05-04 08:17 | 29.91968 | 31.44469 | 7741 ft | 293 kts | 168° |
| 2026-05-04 08:17 | 29.89994 | 31.45146 | 8467 ft | 299 kts | 168° |
| 2026-05-04 08:17 | 29.87990 | 31.45825 | 9260 ft | 301 kts | 169° |
| 2026-05-04 08:17 | 29.85959 | 31.46506 | 10034 ft | 306 kts | 170° |
| 2026-05-04 08:19 | 29.69499 | 31.51962 | 13985 ft | 371 kts | 172° |
| 2026-05-04 08:19 | 29.67007 | 31.52781 | 14650 ft | 375 kts | 172° |
| 2026-05-04 08:20 | 29.64488 | 31.53607 | 15354 ft | 378 kts | 172° |
| 2026-05-04 08:20 | 29.61952 | 31.54439 | 16082 ft | 380 kts | 172° |
| 2026-05-04 08:20 | 29.59400 | 31.55276 | 16794 ft | 383 kts | 173° |
| 2026-05-04 08:20 | 29.56825 | 31.56121 | 17479 ft | 387 kts | 173° |
| 2026-05-04 08:21 | 29.54219 | 31.56975 | 18167 ft | 390 kts | 173° |
| 2026-05-04 08:21 | 29.51601 | 31.57834 | 18775 ft | 394 kts | 173° |
| 2026-05-04 08:21 | 29.48951 | 31.58701 | 19311 ft | 398 kts | 173° |
| 2026-05-04 08:21 | 29.46264 | 31.59580 | 19840 ft | 403 kts | 173° |
| 2026-05-04 08:22 | 29.43548 | 31.60469 | 20398 ft | 408 kts | 173° |
| 2026-05-04 08:22 | 29.40806 | 31.61368 | 20945 ft | 411 kts | 173° |
| 2026-05-04 08:24 | 29.20827 | 31.67897 | 24327 ft | 438 kts | 173° |
| 2026-05-04 08:24 | 29.17971 | 31.68830 | 24823 ft | 438 kts | 173° |
| 2026-05-04 08:24 | 29.15037 | 31.69788 | 25305 ft | 439 kts | 173° |
| 2026-05-04 08:24 | 29.12095 | 31.70746 | 25751 ft | 441 kts | 173° |
| 2026-05-04 08:25 | 29.09136 | 31.71709 | 26181 ft | 443 kts | 173° |
| 2026-05-04 08:25 | 29.06203 | 31.72662 | 26598 ft | 445 kts | 173° |
| 2026-05-04 08:25 | 29.03219 | 31.73632 | 27019 ft | 447 kts | 173° |
| 2026-05-04 08:25 | 29.00223 | 31.74606 | 27435 ft | 448 kts | 173° |
| 2026-05-04 08:26 | 28.97216 | 31.75579 | 27829 ft | 450 kts | 173° |
| 2026-05-04 08:27 | 28.75758 | 31.82384 | 30300 ft | 464 kts | 173° |
| 2026-05-04 08:28 | 28.72640 | 31.83372 | 30561 ft | 466 kts | 173° |
| 2026-05-04 08:28 | 28.69507 | 31.84364 | 30830 ft | 468 kts | 173° |
| 2026-05-04 08:28 | 28.66326 | 31.85372 | 31101 ft | 469 kts | 173° |
| 2026-05-04 08:28 | 28.63220 | 31.86355 | 31358 ft | 471 kts | 173° |
| 2026-05-04 08:29 | 28.60061 | 31.87355 | 31697 ft | 470 kts | 173° |
| 2026-05-04 08:29 | 28.56916 | 31.88351 | 32100 ft | 468 kts | 174° |
| 2026-05-04 08:29 | 28.53790 | 31.89342 | 32516 ft | 465 kts | 174° |
| 2026-05-04 08:31 | 28.32085 | 31.96178 | 34738 ft | 460 kts | 174° |
| 2026-05-04 08:33 | 28.10433 | 32.02971 | 35132 ft | 457 kts | 174° |
| 2026-05-04 08:33 | 28.07367 | 32.03929 | 35131 ft | 456 kts | 174° |
| 2026-05-04 08:35 | 27.82892 | 32.11715 | 35109 ft | 457 kts | 174° |
| 2026-05-04 08:35 | 27.76764 | 32.13669 | 35111 ft | 458 kts | 174° |
| 2026-05-04 08:37 | 27.55270 | 32.20500 | 35092 ft | 460 kts | 174° |
| 2026-05-04 08:38 | 27.50189 | 32.22111 | 35087 ft | 460 kts | 174° |
| 2026-05-04 08:38 | 27.44058 | 32.24058 | 35062 ft | 448 kts | 174° |
| 2026-05-04 08:40 | 27.24132 | 32.30329 | 31662 ft | 437 kts | 173° |
| 2026-05-04 08:40 | 27.21224 | 32.31257 | 31338 ft | 431 kts | 173° |
| 2026-05-04 08:40 | 27.18359 | 32.32173 | 30945 ft | 426 kts | 173° |
| 2026-05-04 08:41 | 27.15515 | 32.33078 | 30503 ft | 424 kts | 173° |
| 2026-05-04 08:41 | 27.12679 | 32.33976 | 30009 ft | 422 kts | 172° |
| 2026-05-04 08:41 | 27.09859 | 32.34866 | 29501 ft | 420 kts | 172° |
| 2026-05-04 08:41 | 27.07062 | 32.35749 | 29036 ft | 416 kts | 172° |
| 2026-05-04 08:42 | 27.04285 | 32.36624 | 28469 ft | 414 kts | 172° |
| 2026-05-04 08:42 | 27.01498 | 32.37498 | 27834 ft | 415 kts | 172° |
| 2026-05-04 08:42 | 26.98725 | 32.38370 | 27349 ft | 413 kts | 172° |
| 2026-05-04 08:42 | 26.95966 | 32.39239 | 26891 ft | 409 kts | 172° |
| 2026-05-04 08:43 | 26.93233 | 32.40099 | 26449 ft | 406 kts | 172° |
| 2026-05-04 08:43 | 26.90513 | 32.40955 | 26018 ft | 403 kts | 172° |
| 2026-05-04 08:43 | 26.87825 | 32.41800 | 25593 ft | 400 kts | 172° |
| 2026-05-04 08:43 | 26.85157 | 32.42638 | 25173 ft | 397 kts | 172° |
| 2026-05-04 08:44 | 26.82511 | 32.43468 | 24753 ft | 394 kts | 172° |
| 2026-05-04 08:44 | 26.79877 | 32.44294 | 24323 ft | 392 kts | 172° |
| 2026-05-04 08:46 | 26.61911 | 32.49919 | 21313 ft | 373 kts | 172° |
| 2026-05-04 08:46 | 26.59422 | 32.50697 | 20903 ft | 370 kts | 172° |
| 2026-05-04 08:46 | 26.56949 | 32.51469 | 20511 ft | 368 kts | 172° |
| 2026-05-04 08:46 | 26.54498 | 32.52234 | 20118 ft | 365 kts | 172° |
| 2026-05-04 08:47 | 26.52057 | 32.52995 | 19723 ft | 363 kts | 172° |
| 2026-05-04 08:47 | 26.49624 | 32.53753 | 19331 ft | 362 kts | 172° |
| 2026-05-04 08:47 | 26.47200 | 32.54508 | 18890 ft | 361 kts | 172° |
| 2026-05-04 08:47 | 26.44791 | 32.55260 | 18530 ft | 358 kts | 172° |
| 2026-05-04 08:48 | 26.42397 | 32.56006 | 18101 ft | 357 kts | 172° |
| 2026-05-04 08:48 | 26.40010 | 32.56748 | 17667 ft | 355 kts | 172° |
| 2026-05-04 08:48 | 26.37638 | 32.57486 | 17265 ft | 353 kts | 172° |
| 2026-05-04 08:48 | 26.35289 | 32.58218 | 16856 ft | 349 kts | 171° |
| 2026-05-04 08:49 | 26.32961 | 32.58942 | 16475 ft | 345 kts | 172° |
| 2026-05-04 08:50 | 26.19373 | 32.63161 | 14260 ft | 332 kts | 172° |
| 2026-05-04 08:50 | 26.17149 | 32.63850 | 13886 ft | 331 kts | 172° |
| 2026-05-04 08:51 | 26.14940 | 32.64534 | 13484 ft | 329 kts | 172° |
| 2026-05-04 08:51 | 26.12738 | 32.65217 | 13094 ft | 327 kts | 172° |
| 2026-05-04 08:51 | 26.10552 | 32.65895 | 12714 ft | 325 kts | 172° |
| 2026-05-04 08:51 | 26.08384 | 32.66566 | 12352 ft | 322 kts | 172° |
| 2026-05-04 08:52 | 26.06228 | 32.67234 | 12002 ft | 320 kts | 172° |
| 2026-05-04 08:52 | 26.04091 | 32.67896 | 11623 ft | 317 kts | 173° |
| 2026-05-04 08:52 | 26.01986 | 32.68550 | 11283 ft | 310 kts | 173° |
| 2026-05-04 08:52 | 25.99927 | 32.69185 | 10980 ft | 303 kts | 173° |
| 2026-05-04 08:53 | 25.97897 | 32.69813 | 10624 ft | 302 kts | 173° |
| 2026-05-04 08:54 | 25.84839 | 32.73846 | 9427 ft | 253 kts | 174° |
| 2026-05-04 08:55 | 25.83185 | 32.74359 | 9330 ft | 241 kts | 175° |
| 2026-05-04 08:55 | 25.81614 | 32.74845 | 9218 ft | 228 kts | 175° |
| 2026-05-04 08:55 | 25.80121 | 32.75306 | 9067 ft | 218 kts | 175° |
| 2026-05-04 08:55 | 25.78672 | 32.75750 | 8780 ft | 216 kts | 175° |
| 2026-05-04 08:57 | 25.69712 | 32.73952 | 6846 ft | 180 kts | 215° |
| 2026-05-04 09:01 | 25.54332 | 32.65218 | 4008 ft | 188 kts | 213° |
| 2026-05-04 09:01 | 25.53141 | 32.64542 | 3755 ft | 190 kts | 212° |
| 2026-05-04 09:01 | 25.51969 | 32.63877 | 3582 ft | 189 kts | 212° |
| 2026-05-04 09:01 | 25.50811 | 32.63221 | 3410 ft | 189 kts | 214° |
| 2026-05-04 09:02 | 25.50006 | 32.62276 | 3316 ft | 168 kts | 262° |
| 2026-05-04 09:02 | 25.50097 | 32.60936 | 3405 ft | 194 kts | 292° |
| 2026-05-04 09:02 | 25.50866 | 32.59756 | 3399 ft | 188 kts | 326° |
| 2026-05-04 09:02 | 25.52057 | 32.59381 | 3349 ft | 176 kts | 3° |
| 2026-05-04 09:03 | 25.53145 | 32.59869 | 3294 ft | 172 kts | 34° |
| 2026-05-04 09:03 | 25.53876 | 32.60933 | 3128 ft | 173 kts | 52° |
| 2026-05-04 09:03 | 25.54530 | 32.62049 | 2878 ft | 170 kts | 51° |
| 2026-05-04 09:03 | 25.55199 | 32.63157 | 2535 ft | 171 kts | 49° |
| 2026-05-04 09:04 | 25.55873 | 32.64273 | 2448 ft | 176 kts | 50° |
| 2026-05-04 09:04 | 25.56606 | 32.65373 | 2261 ft | 179 kts | 38° |
| 2026-05-04 09:04 | 25.57623 | 32.66113 | 2030 ft | 173 kts | 23° |
| 2026-05-04 09:04 | 25.58669 | 32.66710 | 1820 ft | 164 kts | 20° |
| 2026-05-04 09:05 | 25.59691 | 32.67201 | 1600 ft | 158 kts | 18° |
| 2026-05-04 09:05 | 25.60754 | 32.67696 | 1392 ft | 168 kts | 17° |
| 2026-05-04 09:05 | 25.61781 | 32.68176 | 1158 ft | 152 kts | 16° |
| 2026-05-04 09:05 | 25.62704 | 32.68597 | 980 ft | 135 kts | 20° |
| 2026-05-04 09:06 | 25.63537 | 32.68991 | 802 ft | 126 kts | 20° |
| 2026-05-04 09:07 | 25.67665 | 32.70900 | 331 ft | 17 kts | 22° |
| 2026-05-04 09:08 | 25.67773 | 32.70896 | 329 ft | 17 kts | 310° |
| 2026-05-04 09:08 | 25.67820 | 32.70783 | 329 ft | 16 kts | 293° |
| 2026-05-04 09:08 | 25.67846 | 32.70673 | 331 ft | 6 kts | 253° |
| 2026-05-04 09:08 | 25.67816 | 32.70650 | 328 ft | 5 kts | 202° |
| 2026-05-04 09:09 | 25.67781 | 32.70634 | 329 ft | 5 kts | 202° |
| 2026-05-04 09:09 | 25.67746 | 32.70618 | 329 ft | 5 kts | 202° |
| 2026-05-04 09:09 | 25.67706 | 32.70600 | 328 ft | 8 kts | 202° |
| 2026-05-04 09:09 | 25.67637 | 32.70568 | 330 ft | 14 kts | 202° |
| 2026-05-04 09:10 | 25.67627 | 32.70564 | 327 ft | 1 kts | 202° |
| 2026-05-04 09:10 | 25.67620 | 32.70561 | 328 ft | 1 kts | 198° |
| 2026-05-04 09:10 | 25.67608 | 32.70546 | 330 ft | 5 kts | 252° |
| 2026-05-04 09:10 | 25.67612 | 32.70484 | 327 ft | 11 kts | 283° |
| 2026-05-04 09:11 | 25.67573 | 32.70412 | 330 ft | 14 kts | 209° |
| 2026-05-04 09:11 | 25.67507 | 32.70375 | 331 ft | 9 kts | 206° |
| 2026-05-04 09:11 | 25.67453 | 32.70345 | 329 ft | 9 kts | 206° |
| 2026-05-04 09:11 | 25.67400 | 32.70316 | 331 ft | 8 kts | 206° |
| 2026-05-04 09:12 | 25.67365 | 32.70271 | 330 ft | 8 kts | 260° |
| 2026-05-04 09:12 | 25.67384 | 32.70214 | 327 ft | 8 kts | 296° |
| 2026-05-04 09:14 | 25.67405 | 32.70165 | 331 ft | 0 kts | 296° |